Time;durP1;ratioP1;P1;durP2;ratioP2;P2;SDS_P1;SDS_P2;PMS_P1;PMS_P2;Temp;Humidity;BMP_temperature;BMP_pressure;BME280_temperature;BME280_humidity;BME280_pressure;Samples;Min_cycle;Max_cycle;Signal;HPM_P1;HPM_P2
2023/04/22 00:01:37;;;;;;;22.45;10.77;;;;;;;6.11;100.00;100323.38;5038992;28;20033;-78
2023/04/22 00:04:03;;;;;;;20.02;9.90;;;;;;;6.00;100.00;100327.13;5039386;28;20033;-79
2023/04/22 00:06:28;;;;;;;21.10;10.82;;;;;;;6.03;100.00;100328.66;5055963;28;20457;-79
2023/04/22 00:08:54;;;;;;;13.88;8.55;;;;;;;6.10;100.00;100322.53;5056023;28;20041;-78
2023/04/22 00:11:20;;;;;;;22.88;11.52;;;;;;;6.15;100.00;100322.06;5055653;28;20086;-78
2023/04/22 00:13:48;;;;;;;18.48;9.15;;;;;;;6.31;100.00;100324.00;5039282;28;20033;-80
2023/04/22 00:16:14;;;;;;;16.77;8.88;;;;;;;6.39;100.00;100318.69;5038943;28;20525;-78
2023/04/22 00:18:47;;;;;;;23.20;11.50;;;;;;;6.54;100.00;100318.94;5055299;28;20033;-81
2023/04/22 00:21:13;;;;;;;14.80;8.43;;;;;;;6.69;100.00;100321.81;5039535;28;20174;-78
2023/04/22 00:23:39;;;;;;;18.45;9.70;;;;;;;6.56;100.00;100284.88;5038638;28;20119;-79
2023/04/22 00:26:04;;;;;;;27.48;13.93;;;;;;;6.74;100.00;100298.97;5039182;28;20029;-78
2023/04/22 00:28:32;;;;;;;16.33;10.88;;;;;;;6.75;100.00;100313.19;5055518;28;20040;-78
2023/04/22 00:31:03;;;;;;;18.38;11.85;;;;;;;6.72;100.00;100289.44;5038577;28;20029;-78
2023/04/22 00:33:29;;;;;;;15.88;9.35;;;;;;;6.71;100.00;100285.94;5022630;28;20048;-78
2023/04/22 00:35:55;;;;;;;23.95;13.55;;;;;;;6.70;100.00;100272.75;5056476;28;20036;-79
2023/04/22 00:38:23;;;;;;;22.52;10.27;;;;;;;6.70;100.00;100280.78;5055871;28;20028;-77
2023/04/22 00:40:49;;;;;;;18.33;10.63;;;;;;;6.73;100.00;100283.94;5038832;28;20493;-78
2023/04/22 00:43:18;;;;;;;20.42;9.73;;;;;;;6.77;100.00;100279.09;5022291;28;20024;-78
2023/04/22 00:45:46;;;;;;;24.55;14.18;;;;;;;6.71;100.00;100261.88;5038798;28;20033;-78
2023/04/22 00:48:14;;;;;;;24.98;13.18;;;;;;;6.78;100.00;100278.94;5022764;28;20028;-78
2023/04/22 00:50:42;;;;;;;21.13;12.90;;;;;;;6.73;100.00;100275.94;5038539;28;20029;-80
2023/04/22 00:53:08;;;;;;;19.65;10.63;;;;;;;6.56;100.00;100244.81;5054489;28;20079;-80
2023/04/22 00:55:33;;;;;;;25.25;17.52;;;;;;;6.57;100.00;100244.66;5038316;28;20037;-77
2023/04/22 00:58:02;;;;;;;26.15;13.07;;;;;;;6.70;100.00;100260.22;5037978;28;20036;-77
2023/04/22 01:00:28;;;;;;;13.63;8.27;;;;;;;6.68;100.00;100256.03;5038319;28;20035;-78
2023/04/22 01:02:54;;;;;;;27.70;12.20;;;;;;;6.59;100.00;100261.38;5038327;28;20025;-76
2023/04/22 01:05:23;;;;;;;25.88;11.93;;;;;;;6.48;100.00;100266.16;5021639;28;20037;-77
2023/04/22 01:07:50;;;;;;;16.00;7.72;;;;;;;6.23;100.00;100246.53;5021948;28;20040;-77
2023/04/22 01:10:20;;;;;;;26.83;11.38;;;;;;;6.24;100.00;100259.69;5021345;28;20025;-79
2023/04/22 01:12:48;;;;;;;26.80;13.63;;;;;;;6.07;100.00;100264.13;5038006;28;20452;-77
2023/04/22 01:15:16;;;;;;;24.65;11.90;;;;;;;5.63;100.00;100234.00;5038846;28;20110;-78
2023/04/22 01:17:44;;;;;;;32.17;15.13;;;;;;;5.62;100.00;100253.66;5053589;28;20427;-77
2023/04/22 01:20:10;;;;;;;31.20;12.75;;;;;;;5.49;100.00;100254.91;5021730;28;20044;-78
2023/04/22 01:22:40;;;;;;;30.95;12.93;;;;;;;5.32;100.00;100246.91;5054059;28;20041;-77
2023/04/22 01:25:07;;;;;;;24.30;11.85;;;;;;;5.39;100.00;100247.97;5021164;28;20441;-77
2023/04/22 01:27:36;;;;;;;30.50;12.55;;;;;;;5.31;100.00;100239.91;5055525;28;20133;-77
2023/04/22 01:30:03;;;;;;;25.10;13.23;;;;;;;5.23;100.00;100238.84;5020946;28;20472;-77
2023/04/22 01:32:30;;;;;;;27.67;13.07;;;;;;;5.14;100.00;100245.13;5037258;28;20430;-76
2023/04/22 01:35:00;;;;;;;41.28;15.75;;;;;;;4.99;100.00;100239.47;5054351;28;20498;-77
2023/04/22 01:37:26;;;;;;;48.10;18.98;;;;;;;4.97;100.00;100249.44;5038066;28;20468;-77
2023/04/22 01:39:52;;;;;;;35.17;15.40;;;;;;;5.02;100.00;100235.69;5054189;28;20091;-77
2023/04/22 01:42:21;;;;;;;46.92;18.17;;;;;;;5.08;100.00;100235.09;5037107;28;20029;-77
2023/04/22 01:44:47;;;;;;;31.52;15.35;;;;;;;5.14;100.00;100229.13;5037273;28;20032;-76
2023/04/22 01:47:12;;;;;;;40.67;14.70;;;;;;;5.23;100.00;100225.53;5020846;28;20090;-77
2023/04/22 01:49:38;;;;;;;32.78;13.45;;;;;;;5.31;100.00;100221.25;5037628;28;20037;-77
2023/04/22 01:52:06;;;;;;;31.95;14.45;;;;;;;5.41;100.00;100209.50;5054229;28;20033;-78
2023/04/22 01:54:35;;;;;;;35.75;14.77;;;;;;;5.45;100.00;100216.22;5020951;28;20025;-77
2023/04/22 01:57:10;;;;;;;31.63;14.43;;;;;;;5.49;100.00;100206.91;5021472;28;20025;-77
2023/04/22 01:59:35;;;;;;;30.27;13.13;;;;;;;5.57;100.00;100208.78;5036648;28;20029;-77
2023/04/22 02:02:01;;;;;;;21.25;9.95;;;;;;;5.58;100.00;100214.94;5053528;28;20497;-78
2023/04/22 02:04:27;;;;;;;21.70;11.27;;;;;;;5.49;100.00;100188.22;5053035;28;20029;-78
2023/04/22 02:06:52;;;;;;;27.83;11.63;;;;;;;5.47;100.00;100178.72;5036739;28;20039;-78
2023/04/22 02:09:18;;;;;;;30.25;12.77;;;;;;;5.48;100.00;100185.75;5037116;28;20368;-78
2023/04/22 02:11:44;;;;;;;26.60;13.15;;;;;;;5.60;100.00;100204.97;5037201;28;20063;-77
2023/04/22 02:14:09;;;;;;;35.35;13.50;;;;;;;5.52;100.00;100200.41;5052525;28;20025;-77
2023/04/22 02:16:35;;;;;;;28.65;12.52;;;;;;;5.43;100.00;100201.38;5053428;28;20036;-77
2023/04/22 02:19:03;;;;;;;31.42;13.75;;;;;;;5.43;100.00;100196.88;5036771;28;20075;-77
2023/04/22 02:21:31;;;;;;;32.83;13.75;;;;;;;5.27;100.00;100178.94;5054152;28;20041;-80
2023/04/22 02:24:02;;;;;;;32.55;13.73;;;;;;;5.38;100.00;100193.81;5036767;28;20471;-77
2023/04/22 02:26:30;;;;;;;25.63;12.90;;;;;;;5.41;100.00;100188.19;5036539;28;20116;-77
2023/04/22 02:28:58;;;;;;;25.67;12.40;;;;;;;5.43;100.00;100190.69;5053533;28;20041;-80
2023/04/22 02:31:24;;;;;;;24.95;11.40;;;;;;;5.54;100.00;100189.59;5020330;28;20033;-77
2023/04/22 02:33:52;;;;;;;25.27;11.57;;;;;;;5.63;100.00;100183.31;5053683;28;20025;-77
2023/04/22 02:36:18;;;;;;;33.60;13.02;;;;;;;5.81;100.00;100186.75;5036185;28;20031;-76
2023/04/22 02:38:44;;;;;;;37.92;14.25;;;;;;;5.88;100.00;100178.97;5052636;28;20029;-78
2023/04/22 02:41:12;;;;;;;26.88;13.23;;;;;;;5.87;100.00;100167.41;5052351;28;20096;-78
2023/04/22 02:43:40;;;;;;;28.33;13.57;;;;;;;5.92;100.00;100153.59;5053142;28;20035;-76
2023/04/22 02:46:11;;;;;;;34.45;13.65;;;;;;;6.18;100.00;100176.78;5052486;28;20025;-76
2023/04/22 02:48:42;;;;;;;33.47;14.35;;;;;;;6.16;100.00;100166.25;5052570;28;20475;-76
2023/04/22 02:51:10;;;;;;;26.92;12.63;;;;;;;6.24;100.00;100176.94;5052318;28;20044;-76
2023/04/22 02:53:36;;;;;;;32.20;13.55;;;;;;;6.23;100.00;100167.28;5052532;28;20494;-79
2023/04/22 02:56:01;;;;;;;20.88;10.32;;;;;;;6.20;100.00;100140.06;5054139;28;20025;-78
2023/04/22 02:58:27;;;;;;;20.67;10.45;;;;;;;6.51;100.00;100169.66;5052484;28;20041;-81
2023/04/22 03:00:53;;;;;;;22.88;11.18;;;;;;;6.60;100.00;100160.69;5019395;28;20045;-80
2023/04/22 03:03:18;;;;;;;23.50;11.38;;;;;;;6.68;100.00;100158.03;5036089;28;20545;-78
2023/04/22 03:05:44;;;;;;;24.95;13.63;;;;;;;6.76;100.00;100160.69;5052255;28;20476;-81
2023/04/22 03:08:10;;;;;;;31.27;14.57;;;;;;;6.79;100.00;100154.19;5052199;28;20456;-80
2023/04/22 03:10:38;;;;;;;18.15;8.90;;;;;;;6.84;100.00;100149.19;5035230;28;20033;-79
2023/04/22 03:13:03;;;;;;;32.45;13.10;;;;;;;6.78;100.00;100134.66;5052065;28;20025;-81
2023/04/22 03:15:31;;;;;;;30.33;14.18;;;;;;;6.89;100.00;100143.34;5036021;28;20124;-79
2023/04/22 03:17:59;;;;;;;32.60;13.98;;;;;;;6.86;100.00;100136.50;5019503;28;20033;-81
2023/04/22 03:20:25;;;;;;;28.60;12.95;;;;;;;6.82;100.00;100135.97;5036975;28;20090;-78
2023/04/22 03:22:50;;;;;;;29.90;13.07;;;;;;;6.79;100.00;100128.28;5020732;28;20048;-80
2023/04/22 03:25:19;;;;;;;29.98;11.75;;;;;;;6.81;100.00;100133.50;5021963;28;20120;-79
2023/04/22 03:27:49;;;;;;;22.13;12.95;;;;;;;6.76;100.00;100114.44;5037415;28;20064;-79
2023/04/22 03:30:17;;;;;;;21.40;10.95;;;;;;;6.86;100.00;100124.97;5037563;28;20487;-78
2023/04/22 03:32:45;;;;;;;31.90;12.55;;;;;;;6.79;100.00;100101.56;5053606;28;20032;-79
2023/04/22 03:35:13;;;;;;;26.50;10.43;;;;;;;6.89;100.00;100111.28;5052510;28;20029;-78
2023/04/22 03:37:42;;;;;;;30.65;15.50;;;;;;;6.93;100.00;100116.13;5052193;28;20029;-79
2023/04/22 03:40:08;;;;;;;26.20;13.20;;;;;;;6.96;100.00;100110.44;5034754;28;20039;-78
2023/04/22 03:42:36;;;;;;;20.00;12.05;;;;;;;6.91;100.00;100095.91;5019297;28;20033;-79
2023/04/22 03:45:02;;;;;;;29.35;12.20;;;;;;;6.92;100.00;100106.41;5035516;28;20044;-78
2023/04/22 03:47:30;;;;;;;31.52;14.85;;;;;;;6.94;100.00;100101.75;5035577;28;20490;-79
2023/04/22 03:49:58;;;;;;;24.88;11.52;;;;;;;6.90;100.00;100091.56;5051722;28;20510;-78
2023/04/22 03:52:26;;;;;;;42.30;13.95;;;;;;;6.92;100.00;100087.72;5035648;28;20407;-78
2023/04/22 03:54:52;;;;;;;27.80;13.43;;;;;;;6.92;100.00;100093.06;5035223;28;20045;-78
2023/04/22 03:57:17;;;;;;;22.88;11.15;;;;;;;6.92;100.00;100092.22;5034708;28;20098;-77
2023/04/22 03:59:47;;;;;;;24.75;12.90;;;;;;;6.93;100.00;100089.41;5035482;28;20433;-78
2023/04/22 04:02:13;;;;;;;36.38;14.30;;;;;;;6.93;100.00;100089.41;5035634;28;20452;-77
2023/04/22 04:04:38;;;;;;;30.25;12.60;;;;;;;6.93;100.00;100077.84;5051857;28;20107;-76
2023/04/22 04:07:07;;;;;;;29.70;13.77;;;;;;;6.94;100.00;100084.88;5035097;28;20112;-81
2023/04/22 04:09:37;;;;;;;31.88;14.13;;;;;;;6.97;100.00;100095.22;5019231;28;20098;-77
2023/04/22 04:12:03;;;;;;;29.48;13.52;;;;;;;6.96;100.00;100088.19;5035008;28;20041;-79
2023/04/22 04:14:28;;;;;;;37.67;15.10;;;;;;;6.90;100.00;100072.84;5051515;28;20463;-77
2023/04/22 04:16:57;;;;;;;29.13;12.90;;;;;;;6.89;100.00;100069.34;5034952;28;20037;-77
2023/04/22 04:19:23;;;;;;;23.05;13.18;;;;;;;6.96;100.00;100077.50;5019143;28;20033;-77
2023/04/22 04:21:54;;;;;;;22.75;10.05;;;;;;;6.96;100.00;100069.50;5053363;28;20483;-77
2023/04/22 04:24:19;;;;;;;26.33;12.20;;;;;;;6.99;100.00;100069.19;5022100;28;20491;-77
2023/04/22 04:26:46;;;;;;;25.85;12.02;;;;;;;7.05;100.00;100068.50;5055676;28;20037;-77
2023/04/22 04:29:12;;;;;;;27.15;12.63;;;;;;;7.09;100.00;100063.63;5005712;28;20041;-80
2023/04/22 04:31:38;;;;;;;19.90;11.02;;;;;;;7.11;100.00;100057.09;5038702;28;20035;-79
2023/04/22 04:34:10;;;;;;;34.00;15.73;;;;;;;7.12;100.00;100053.44;5038902;28;20037;-79
2023/04/22 04:36:38;;;;;;;33.65;14.52;;;;;;;7.12;100.00;100044.56;5022676;28;20456;-75
2023/04/22 04:39:05;;;;;;;20.60;11.32;;;;;;;7.12;100.00;100042.75;5055168;28;20036;-79
2023/04/22 04:41:34;;;;;;;29.33;13.27;;;;;;;7.13;100.00;100038.22;5022167;28;20094;-79
2023/04/22 04:44:00;;;;;;;35.03;14.88;;;;;;;7.04;100.00;100021.38;5055011;28;20025;-78
2023/04/22 04:46:28;;;;;;;32.17;13.77;;;;;;;7.10;100.00;100028.72;5038493;28;20135;-78
2023/04/22 04:48:57;;;;;;;35.88;14.15;;;;;;;7.08;100.00;100027.22;5055161;28;20021;-78
2023/04/22 04:51:23;;;;;;;32.55;15.90;;;;;;;7.07;100.00;100023.72;5022221;28;20029;-77
2023/04/22 04:53:48;;;;;;;35.50;16.00;;;;;;;7.09;100.00;100026.19;5054036;28;20095;-77
2023/04/22 04:56:20;;;;;;;27.50;11.52;;;;;;;6.99;100.00;100023.75;5054550;28;20041;-78
2023/04/22 04:58:45;;;;;;;31.67;13.35;;;;;;;6.91;100.00;100013.91;5055144;28;20544;-82
2023/04/22 05:01:11;;;;;;;27.27;13.15;;;;;;;6.90;100.00;100019.41;5021962;28;20037;-78
2023/04/22 05:03:41;;;;;;;26.35;11.43;;;;;;;6.87;100.00;100014.41;5038043;28;20045;-77
2023/04/22 05:06:10;;;;;;;33.75;15.40;;;;;;;6.95;100.00;100012.53;5037803;28;20032;-77
2023/04/22 05:08:38;;;;;;;36.58;16.15;;;;;;;6.96;100.00;100006.19;5054383;28;20057;-77
2023/04/22 05:11:04;;;;;;;34.28;14.85;;;;;;;6.93;100.00;99995.00;5021235;28;20028;-77
2023/04/22 05:13:30;;;;;;;31.05;14.90;;;;;;;6.93;100.00;100006.56;5038186;28;20434;-76
2023/04/22 05:15:58;;;;;;;27.77;11.40;;;;;;;6.95;100.00;100001.84;5053780;28;20103;-77
2023/04/22 05:18:26;;;;;;;30.20;13.48;;;;;;;6.92;100.00;99994.19;5054540;28;20033;-76
2023/04/22 05:20:52;;;;;;;29.85;14.82;;;;;;;7.01;100.00;100003.84;5053074;28;20049;-77
2023/04/22 05:23:19;;;;;;;29.58;14.68;;;;;;;7.03;100.00;99999.16;5053925;28;20043;-78
2023/04/22 05:25:45;;;;;;;29.00;13.75;;;;;;;6.96;100.00;99997.31;5054153;28;20041;-77
2023/04/22 05:28:11;;;;;;;33.65;15.82;;;;;;;7.00;100.00;100004.00;5037580;28;20463;-76
2023/04/22 05:30:37;;;;;;;34.80;15.25;;;;;;;7.03;100.00;100001.00;5053983;28;20078;-77
2023/04/22 05:33:03;;;;;;;33.83;13.88;;;;;;;7.11;100.00;100000.13;5036388;28;20029;-77
2023/04/22 05:35:28;;;;;;;35.72;14.77;;;;;;;7.08;100.00;99995.97;5053751;28;20040;-76
2023/04/22 05:37:54;;;;;;;26.50;14.02;;;;;;;7.17;100.00;99999.44;5055188;28;20352;-77
2023/04/22 05:40:24;;;;;;;25.95;13.05;;;;;;;7.27;100.00;100000.91;5054180;28;20075;-77
2023/04/22 05:42:52;;;;;;;35.20;15.88;;;;;;;7.30;100.00;100001.56;5053098;28;20025;-80
2023/04/22 05:45:21;;;;;;;32.92;14.48;;;;;;;7.29;100.00;100002.59;5037236;28;20479;-77
2023/04/22 05:47:47;;;;;;;28.65;14.40;;;;;;;7.26;100.00;100009.13;5037399;28;20057;-77
2023/04/22 05:50:15;;;;;;;29.58;13.93;;;;;;;7.23;100.00;100002.28;5054054;28;20060;-76
2023/04/22 05:52:41;;;;;;;28.17;13.07;;;;;;;7.24;100.00;100000.44;5020883;28;20094;-77
2023/04/22 05:55:07;;;;;;;21.75;10.50;;;;;;;7.26;100.00;99995.75;5053238;28;20398;-80
2023/04/22 05:57:35;;;;;;;2.75;1.90;;;;;;;7.27;100.00;99989.38;5036913;28;20036;-76
2023/04/22 06:00:02;;;;;;;25.30;12.02;;;;;;;7.22;100.00;99981.91;5053381;28;20403;-76
2023/04/22 06:02:31;;;;;;;29.13;11.27;;;;;;;7.25;100.00;99989.56;5036725;28;20037;-78
2023/04/22 06:04:57;;;;;;;26.15;14.27;;;;;;;7.30;100.00;99997.06;5020540;28;20090;-79
2023/04/22 06:07:22;;;;;;;29.30;12.00;;;;;;;7.33;100.00;99993.19;5052704;28;20028;-76
2023/04/22 06:09:51;;;;;;;26.23;11.93;;;;;;;7.35;100.00;99984.00;5037340;28;20032;-78
2023/04/22 06:12:18;;;;;;;29.35;13.90;;;;;;;7.44;100.00;99987.50;5036136;28;20033;-76
2023/04/22 06:14:46;;;;;;;30.77;14.43;;;;;;;7.46;100.00;99988.97;5036874;28;20036;-77
2023/04/22 06:17:11;;;;;;;28.83;14.13;;;;;;;7.38;100.00;99975.66;5036897;28;20079;-80
2023/04/22 06:19:37;;;;;;;28.27;12.70;;;;;;;7.44;100.00;99972.25;5053154;28;20491;-77
2023/04/22 06:22:03;;;;;;;27.58;12.50;;;;;;;7.56;100.00;99988.75;5053038;28;20033;-80
2023/04/22 06:24:28;;;;;;;28.80;11.30;;;;;;;7.58;100.00;99985.91;5053162;28;20082;-78
2023/04/22 06:26:57;;;;;;;35.10;15.40;;;;;;;7.61;100.00;99978.34;5070135;28;20040;-77
2023/04/22 06:29:23;;;;;;;34.15;14.63;;;;;;;7.58;100.00;99980.56;5053350;28;20033;-78
2023/04/22 06:31:48;;;;;;;25.05;12.82;;;;;;;7.55;100.00;99980.91;5052530;28;20021;-78
2023/04/22 06:34:20;;;;;;;27.48;13.32;;;;;;;7.60;100.00;99983.91;5036548;28;20384;-78
2023/04/22 06:36:45;;;;;;;25.30;11.40;;;;;;;7.67;100.00;99980.34;5036010;28;20055;-77
2023/04/22 06:39:11;;;;;;;31.05;12.93;;;;;;;7.75;100.00;99971.41;5052976;28;20463;-79
2023/04/22 06:41:36;;;;;;;18.58;9.85;;;;;;;7.82;100.00;99971.56;5019474;28;20119;-80
2023/04/22 06:44:03;;;;;;;28.92;13.13;;;;;;;7.90;100.00;99975.00;5052289;28;20029;-82
2023/04/22 06:46:29;;;;;;;20.75;10.75;;;;;;;7.93;100.00;99971.97;5052671;28;20091;-79
2023/04/22 06:48:54;;;;;;;26.92;12.85;;;;;;;8.02;100.00;99972.75;5053514;28;20036;-79
2023/04/22 06:51:20;;;;;;;25.60;11.95;;;;;;;8.05;100.00;99966.22;5052383;28;20032;-80
2023/04/22 06:53:46;;;;;;;23.52;11.52;;;;;;;8.09;100.00;99967.50;5019835;28;20040;-79
2023/04/22 06:56:12;;;;;;;22.17;10.40;;;;;;;8.20;100.00;99969.75;5035839;28;20495;-80
2023/04/22 06:58:37;;;;;;;27.52;12.43;;;;;;;8.15;100.00;99956.94;5036174;28;20486;-80
2023/04/22 07:01:03;;;;;;;23.10;9.95;;;;;;;8.30;100.00;99974.88;5035871;28;20032;-79
2023/04/22 07:03:31;;;;;;;24.85;10.35;;;;;;;8.23;100.00;99950.66;5051957;28;20032;-79
2023/04/22 07:05:56;;;;;;;18.30;9.95;;;;;;;8.40;100.00;99959.41;5019818;28;20533;-76
2023/04/22 07:08:27;;;;;;;21.77;10.77;;;;;;;8.51;100.00;99967.00;5052072;28;20037;-76
2023/04/22 07:10:53;;;;;;;18.20;9.90;;;;;;;8.63;100.00;99970.09;5019321;28;20032;-76
2023/04/22 07:13:18;;;;;;;14.15;7.65;;;;;;;8.65;100.00;99962.69;5052275;28;20052;-76
2023/04/22 07:15:47;;;;;;;21.73;11.30;;;;;;;8.80;100.00;99960.84;5036030;28;20163;-78
2023/04/22 07:18:13;;;;;;;16.27;8.77;;;;;;;8.85;100.00;99946.09;5036200;28;20463;-79
2023/04/22 07:20:41;;;;;;;14.13;7.47;;;;;;;9.01;100.00;99951.25;5035276;28;20467;-78
2023/04/22 07:23:09;;;;;;;19.42;10.05;;;;;;;9.09;100.00;99942.28;5053267;28;20082;-79
2023/04/22 07:25:37;;;;;;;12.18;7.75;;;;;;;9.18;100.00;99954.56;5020266;28;20359;-77
2023/04/22 07:28:03;;;;;;;10.35;6.18;;;;;;;9.01;100.00;99919.06;5035984;28;20479;-77
2023/04/22 07:30:33;;;;;;;15.65;8.68;;;;;;;9.29;100.00;99948.75;5051636;28;20033;-76
2023/04/22 07:33:01;;;;;;;21.75;12.23;;;;;;;9.34;100.00;99940.97;5036204;28;20482;-76
2023/04/22 07:35:30;;;;;;;26.90;12.75;;;;;;;9.40;100.00;99940.22;5035620;28;20164;-76
2023/04/22 07:37:56;;;;;;;17.58;9.15;;;;;;;9.37;100.00;99934.41;5018935;28;20071;-82
2023/04/22 07:40:24;;;;;;;18.98;9.45;;;;;;;9.36;100.00;99921.97;5052164;28;20059;-77
2023/04/22 07:42:49;;;;;;;20.77;11.15;;;;;;;9.49;100.00;99937.41;5036158;28;20025;-75
2023/04/22 07:45:15;;;;;;;19.77;10.07;;;;;;;9.54;100.00;99951.91;5052950;28;20394;-77
2023/04/22 07:47:41;;;;;;;23.98;11.90;;;;;;;9.45;100.00;99929.75;5035330;28;20071;-76
2023/04/22 07:50:07;;;;;;;8.95;6.50;;;;;;;9.40;100.00;99925.97;5035621;28;20045;-77
2023/04/22 07:52:32;;;;;;;16.15;7.75;;;;;;;9.41;100.00;99909.66;5035453;28;20210;-77
2023/04/22 07:54:58;;;;;;;21.27;10.48;;;;;;;9.56;100.00;99936.47;5053160;28;20455;-77
2023/04/22 07:57:24;;;;;;;11.13;5.93;;;;;;;9.68;100.00;99931.41;5021265;28;20039;-77
2023/04/22 07:59:51;;;;;;;19.08;9.60;;;;;;;9.72;100.00;99915.78;5023218;28;20029;-76
2023/04/22 08:02:16;;;;;;;21.85;9.73;;;;;;;9.79;100.00;99925.56;5055873;28;20033;-77
2023/04/22 08:04:42;;;;;;;14.85;8.95;;;;;;;9.91;100.00;99918.66;5039124;28;20036;-77
2023/04/22 08:07:10;;;;;;;19.42;9.93;;;;;;;10.04;100.00;99925.19;5056058;28;20069;-77
2023/04/22 08:09:36;;;;;;;21.70;10.18;;;;;;;9.90;100.00;99897.38;5039460;28;20076;-78
2023/04/22 08:12:04;;;;;;;19.58;9.32;;;;;;;10.18;100.00;99920.75;5039438;28;20029;-77
2023/04/22 08:14:29;;;;;;;19.73;8.63;;;;;;;10.30;100.00;99919.25;5022834;28;20498;-76
2023/04/22 08:16:55;;;;;;;18.08;9.38;;;;;;;10.29;100.00;99913.03;5055466;28;20033;-79
2023/04/22 08:19:20;;;;;;;19.83;9.27;;;;;;;10.44;100.00;99920.16;5055391;28;20486;-79
2023/04/22 08:21:47;;;;;;;22.42;13.02;;;;;;;10.45;100.00;99911.06;5038945;28;20028;-78
2023/04/22 08:24:13;;;;;;;21.90;9.15;;;;;;;10.45;100.00;99901.16;5055346;28;20494;-76
2023/04/22 08:26:39;;;;;;;20.08;10.20;;;;;;;10.51;100.00;99911.13;5055537;28;20021;-76
2023/04/22 08:29:06;;;;;;;17.23;7.28;;;;;;;10.33;100.00;99900.03;5039215;28;20074;-77
2023/04/22 08:31:33;;;;;;;11.23;6.85;;;;;;;10.24;100.00;99904.69;5055304;28;20087;-78
2023/04/22 08:33:58;;;;;;;12.82;7.72;;;;;;;10.23;100.00;99903.03;5039008;28;20552;-80
2023/04/22 08:36:26;;;;;;;16.20;8.07;;;;;;;10.26;100.00;99891.88;5054951;28;20033;-79
2023/04/22 08:38:51;;;;;;;19.45;10.20;;;;;;;10.35;100.00;99895.31;5054864;28;20464;-76
2023/04/22 08:41:20;;;;;;;14.80;8.57;;;;;;;10.31;100.00;99894.03;5022259;28;20033;-79
2023/04/22 08:43:49;;;;;;;14.15;7.57;;;;;;;10.15;100.00;99891.59;5022645;28;20123;-77
2023/04/22 08:46:18;;;;;;;16.40;7.07;;;;;;;9.91;100.00;99883.75;5038713;28;20469;-78
2023/04/22 08:48:50;;;;;;;15.15;8.00;;;;;;;9.61;100.00;99864.28;5039610;28;20090;-77
2023/04/22 08:51:16;;;;;;;21.08;10.07;;;;;;;9.52;100.00;99886.88;5022097;28;20036;-78
2023/04/22 08:53:47;;;;;;;20.00;8.77;;;;;;;9.41;100.00;99882.00;5038169;28;20112;-79
2023/04/22 08:56:13;;;;;;;18.05;8.85;;;;;;;9.34;100.00;99884.63;5038740;28;20028;-78
2023/04/22 08:58:42;;;;;;;16.80;7.20;;;;;;;9.29;100.00;99872.78;5038516;28;20025;-76
2023/04/22 09:01:08;;;;;;;19.48;10.38;;;;;;;9.32;100.00;99875.09;5054647;28;20554;-78
2023/04/22 09:03:35;;;;;;;14.77;7.55;;;;;;;9.33;100.00;99869.53;5021860;28;20132;-77
2023/04/22 09:06:03;;;;;;;18.35;9.43;;;;;;;9.10;100.00;99831.31;5038488;28;20045;-77
2023/04/22 09:08:28;;;;;;;20.85;10.07;;;;;;;9.26;100.00;99873.97;5053364;28;20123;-78
2023/04/22 09:10:56;;;;;;;18.33;10.43;;;;;;;9.29;100.00;99868.28;5054851;28;20123;-78
2023/04/22 09:13:22;;;;;;;20.80;10.35;;;;;;;9.40;100.00;99857.03;5038060;28;20590;-77
2023/04/22 09:15:47;;;;;;;17.95;8.65;;;;;;;9.56;100.00;99853.28;5038248;28;20119;-78
2023/04/22 09:18:16;;;;;;;19.27;8.48;;;;;;;9.63;100.00;99846.13;5037858;28;20485;-77
2023/04/22 09:20:53;;;;;;;16.73;8.68;;;;;;;9.63;100.00;99851.50;5037928;28;20467;-77
2023/04/22 09:26:41;;;;;;;20.35;9.45;;;;;;;9.71;100.00;99806.72;5040823;28;20036;-77
2023/04/22 09:29:12;;;;;;;16.13;7.55;;;;;;;9.92;100.00;99804.00;5021169;28;20037;-79
2023/04/22 09:31:39;;;;;;;14.52;6.97;;;;;;;10.25;100.00;99835.66;5021566;28;20060;-78
2023/04/22 09:34:05;;;;;;;12.52;8.23;;;;;;;10.43;100.00;99825.28;5054327;28;20032;-78
2023/04/22 09:36:39;;;;;;;10.82;7.15;;;;;;;10.66;100.00;99829.53;5037684;28;20100;-77
2023/04/22 09:39:06;;;;;;;12.82;7.60;;;;;;;10.86;100.00;99826.94;5022200;28;20035;-78
2023/04/22 09:41:39;;;;;;;10.68;6.65;;;;;;;10.85;100.00;99825.25;5037796;28;20033;-78
2023/04/22 09:44:16;;;;;;;14.68;7.05;;;;;;;10.72;100.00;99813.44;5021752;28;20048;-76
2023/04/22 09:46:43;;;;;;;13.70;6.63;;;;;;;10.75;100.00;99817.59;5037473;28;20037;-79
2023/04/22 09:49:09;;;;;;;10.23;6.13;;;;;;;10.83;100.00;99813.91;5037479;28;20037;-77
2023/04/22 09:51:39;;;;;;;10.27;5.82;;;;;;;10.79;100.00;99819.66;5037076;28;20035;-77
2023/04/22 09:54:09;;;;;;;11.52;5.57;;;;;;;10.84;100.00;99816.38;5020925;28;20091;-77
2023/04/22 09:56:52;;;;;;;9.07;5.65;;;;;;;10.78;100.00;99811.81;5053630;28;20033;-77
2023/04/22 09:59:28;;;;;;;10.43;6.25;;;;;;;10.69;100.00;99815.69;5021365;28;20040;-78
2023/04/22 10:02:08;;;;;;;12.82;6.82;;;;;;;10.45;100.00;99809.78;5037217;28;20029;-78
2023/04/22 10:04:34;;;;;;;13.00;6.75;;;;;;;10.24;100.00;99807.13;5038866;28;20106;-77
2023/04/22 10:07:01;;;;;;;12.80;7.00;;;;;;;10.01;100.00;99821.66;5037168;28;20418;-79
2023/04/22 10:09:27;;;;;;;6.10;4.15;;;;;;;9.74;100.00;99809.88;5036917;28;20029;-77
2023/04/22 10:11:56;;;;;;;6.80;4.68;;;;;;;9.51;100.00;99810.06;5054808;28;20086;-76
2023/04/22 10:14:23;;;;;;;5.55;3.38;;;;;;;9.22;100.00;99814.53;5053226;28;20021;-76
2023/04/22 10:16:49;;;;;;;5.90;3.88;;;;;;;8.88;100.00;99799.09;5020283;28;20047;-76
2023/04/22 10:19:21;;;;;;;4.38;2.72;;;;;;;8.70;100.00;99818.25;5036314;28;20060;-78
2023/04/22 10:21:50;;;;;;;5.32;3.15;;;;;;;8.68;100.00;99817.63;5036607;28;20025;-76
2023/04/22 10:24:17;;;;;;;3.60;2.13;;;;;;;8.62;100.00;99807.63;5036905;28;20039;-81
2023/04/22 10:26:54;;;;;;;5.35;3.85;;;;;;;8.58;100.00;99811.72;5020352;28;20033;-77
2023/04/22 10:29:20;;;;;;;7.80;4.10;;;;;;;8.55;100.00;99806.72;5020441;28;20399;-78
2023/04/22 10:31:57;;;;;;;6.35;3.90;;;;;;;8.49;100.00;99802.09;5003886;28;20391;-80
2023/04/22 10:34:23;;;;;;;5.07;3.38;;;;;;;8.41;100.00;99810.22;5036963;28;20056;-77
2023/04/22 10:36:52;;;;;;;5.45;3.42;;;;;;;8.41;100.00;99811.06;5020100;28;20060;-76
2023/04/22 10:39:20;;;;;;;4.95;3.35;;;;;;;8.35;100.00;99811.78;5036232;28;20082;-76
2023/04/22 10:41:55;;;;;;;4.72;2.60;;;;;;;8.28;100.00;99811.69;5036346;28;20029;-76
2023/04/22 10:44:21;;;;;;;6.22;3.50;;;;;;;8.27;100.00;99818.03;5036282;28;20538;-77
2023/04/22 10:46:51;;;;;;;5.07;2.85;;;;;;;8.27;100.00;99820.72;5020053;28;20025;-78
2023/04/22 10:49:19;;;;;;;6.90;3.80;;;;;;;8.34;100.00;99816.31;5036332;28;20039;-77
2023/04/22 10:51:48;;;;;;;6.18;3.75;;;;;;;8.45;100.00;99816.91;5054112;28;20507;-77
2023/04/22 10:54:28;;;;;;;5.65;3.95;;;;;;;8.59;100.00;99824.09;5052922;28;20060;-76
2023/04/22 10:57:04;;;;;;;4.45;2.40;;;;;;;8.66;100.00;99816.97;5052763;28;20025;-77
2023/04/22 10:59:34;;;;;;;1.67;1.58;;;;;;;8.63;100.00;99806.63;5036290;28;20124;-77
2023/04/22 11:02:01;;;;;;;0.40;0.40;;;;;;;8.69;100.00;99819.28;5036191;28;20041;-79
2023/04/22 11:04:27;;;;;;;0.40;0.40;;;;;;;8.74;100.00;99824.09;5036197;28;20029;-80
2023/04/22 11:07:19;;;;;;;0.40;0.40;;;;;;;8.82;100.00;99817.78;5035926;28;20128;-81
2023/04/22 11:09:51;;;;;;;0.38;0.38;;;;;;;8.91;100.00;99817.47;5053777;28;20099;-77
2023/04/22 11:12:38;;;;;;;0.30;0.30;;;;;;;8.94;100.00;99821.63;5036175;28;20116;-77
2023/04/22 11:15:18;;;;;;;0.40;0.40;;;;;;;8.90;100.00;99821.19;5052639;28;20050;-78
2023/04/22 11:17:46;;;;;;;0.40;0.40;;;;;;;8.90;100.00;99813.16;5003172;28;20166;-77
2023/04/22 11:20:16;;;;;;;0.40;0.40;;;;;;;8.95;100.00;99817.94;5019750;28;20113;-76
2023/04/22 11:22:53;;;;;;;0.40;0.40;;;;;;;8.88;100.00;99803.63;5020822;28;20040;-76